Time;durP1;ratioP1;P1;durP2;ratioP2;P2;SDS_P1;SDS_P2;PMS_P1;PMS_P2;Temp;Humidity;BMP_temperature;BMP_pressure;BME280_temperature;BME280_humidity;BME280_pressure;Samples;Min_cycle;Max_cycle;Signal;HPM_P1;HPM_P2
2023/10/18 00:02:51;;;;;;;6.20;5.20;;;;;;;8.66;77.90;94949.72;5069702;28;20028;-74
2023/10/18 00:05:18;;;;;;;7.18;5.00;;;;;;;8.54;77.98;94941.09;5068508;28;20037;-74
2023/10/18 00:07:44;;;;;;;5.28;4.65;;;;;;;8.67;77.53;94961.75;5052854;28;20571;-74
2023/10/18 00:10:10;;;;;;;6.43;5.05;;;;;;;8.48;77.75;94942.38;5052915;28;20040;-74
2023/10/18 00:12:37;;;;;;;6.93;5.57;;;;;;;8.61;78.22;94952.66;5052747;28;20496;-74
2023/10/18 00:15:05;;;;;;;7.50;5.35;;;;;;;8.63;78.34;94955.13;5069151;28;20029;-74
2023/10/18 00:17:31;;;;;;;7.25;6.32;;;;;;;8.42;78.22;94931.66;5069380;28;20589;-73
2023/10/18 00:19:57;;;;;;;8.52;5.72;;;;;;;8.60;78.36;94938.06;5069700;28;20028;-74
2023/10/18 00:22:22;;;;;;;7.70;6.00;;;;;;;8.59;78.30;94931.22;5068359;28;20043;-74
2023/10/18 00:24:48;;;;;;;8.02;6.35;;;;;;;8.50;78.53;94948.28;5052697;28;20040;-74
2023/10/18 00:27:13;;;;;;;6.90;6.05;;;;;;;8.56;78.38;94933.22;5052742;28;20024;-74
2023/10/18 00:29:38;;;;;;;7.13;6.00;;;;;;;8.60;78.01;94945.00;5069330;28;20067;-74
2023/10/18 00:32:04;;;;;;;7.90;6.30;;;;;;;8.76;77.85;94940.34;5051787;28;20422;-74
2023/10/18 00:34:30;;;;;;;6.93;6.22;;;;;;;8.76;77.96;94945.53;5070836;28;20047;-74
2023/10/18 00:36:55;;;;;;;9.20;7.15;;;;;;;8.72;76.84;94928.59;5052615;28;20029;-74
2023/10/18 00:39:32;;;;;;;9.18;7.13;;;;;;;8.70;76.73;94930.44;5069357;28;20029;-74
2023/10/18 00:44:42;;;;;;;7.97;6.95;;;;;;;8.55;76.29;94934.97;5073765;28;20077;-74
2023/10/18 00:47:10;;;;;;;10.00;7.40;;;;;;;8.20;78.87;94932.31;5074820;28;20511;-73
2023/10/18 00:49:35;;;;;;;10.38;7.70;;;;;;;8.22;79.60;94922.69;5055611;28;20490;-74
2023/10/18 00:52:01;;;;;;;9.65;8.15;;;;;;;8.37;78.60;94936.28;5073205;28;20039;-73
2023/10/18 00:54:26;;;;;;;8.95;7.55;;;;;;;8.12;80.32;94934.63;5056663;28;20032;-74
2023/10/18 00:56:52;;;;;;;9.27;7.35;;;;;;;8.01;79.84;94917.28;5073092;28;20029;-74
2023/10/18 00:59:21;;;;;;;10.18;7.43;;;;;;;8.00;79.92;94933.75;5051827;28;20031;-74
2023/10/18 01:04:34;;;;;;;13.02;8.95;;;;;;;8.15;79.56;94929.22;5053297;28;20568;-74
2023/10/18 01:07:10;;;;;;;11.00;8.25;;;;;;;8.11;79.53;94927.78;5036320;28;20021;-73
2023/10/18 01:09:36;;;;;;;11.98;9.50;;;;;;;8.07;79.98;94909.91;5069141;28;20513;-74
2023/10/18 01:12:02;;;;;;;15.45;9.15;;;;;;;8.33;79.42;94935.69;5072845;28;20036;-74
2023/10/18 01:14:27;;;;;;;12.15;8.70;;;;;;;8.40;79.94;94933.50;5072792;28;20033;-74
2023/10/18 01:16:56;;;;;;;12.60;8.95;;;;;;;8.42;79.37;94942.00;5072556;28;20028;-73
2023/10/18 01:19:22;;;;;;;14.10;9.43;;;;;;;8.14;79.73;94912.06;5040440;28;20044;-74
2023/10/18 01:21:51;;;;;;;12.02;8.82;;;;;;;8.36;79.75;94925.13;5072694;28;20025;-74
2023/10/18 01:24:16;;;;;;;11.73;8.40;;;;;;;8.58;79.57;94947.72;5072637;28;20032;-74
2023/10/18 01:26:42;;;;;;;14.65;8.90;;;;;;;8.65;78.09;94942.91;5071235;28;20426;-74
2023/10/18 01:29:10;;;;;;;10.65;8.65;;;;;;;8.73;77.76;94938.00;5072325;28;20048;-74
2023/10/18 01:31:36;;;;;;;13.15;8.48;;;;;;;8.65;77.35;94938.56;5073709;28;20052;-73
2023/10/18 01:34:05;;;;;;;10.80;8.07;;;;;;;8.39;78.56;94931.88;5072491;28;20068;-74
2023/10/18 01:36:33;;;;;;;10.82;8.07;;;;;;;8.53;78.22;94936.03;5055041;28;20556;-74
2023/10/18 01:38:58;;;;;;;10.50;7.45;;;;;;;8.43;78.12;94938.47;5039607;28;20468;-74
2023/10/18 01:41:30;;;;;;;12.10;9.23;;;;;;;8.31;78.74;94937.56;5072336;28;20021;-73
2023/10/18 01:43:58;;;;;;;;;;;;;;;8.39;78.64;94943.03;5072011;28;20111;-74
2023/10/18 01:46:23;;;;;;;10.77;8.05;;;;;;;8.37;79.59;94939.69;5055442;28;20390;-74
2023/10/18 01:48:51;;;;;;;10.35;8.23;;;;;;;8.35;79.67;94936.38;5072055;28;20058;-74
2023/10/18 01:51:17;;;;;;;12.38;8.85;;;;;;;8.53;79.41;94941.22;5072228;28;20113;-74
2023/10/18 01:53:43;;;;;;;13.52;9.05;;;;;;;8.55;79.83;94940.16;5053344;28;20471;-74
2023/10/18 01:56:09;;;;;;;11.63;8.13;;;;;;;8.66;79.39;94935.03;5055479;28;20054;-73
2023/10/18 01:58:35;;;;;;;11.30;8.45;;;;;;;8.63;79.22;94937.00;5071921;28;20429;-74
2023/10/18 02:01:02;;;;;;;10.85;8.48;;;;;;;8.64;79.19;94946.44;5072045;28;20024;-73
2023/10/18 02:03:29;;;;;;;11.20;7.90;;;;;;;8.54;79.17;94935.09;5054070;28;20058;-74
2023/10/18 02:05:54;;;;;;;11.13;8.18;;;;;;;8.54;79.84;94945.47;5054229;28;20055;-74
2023/10/18 02:08:20;;;;;;;10.15;7.68;;;;;;;8.59;79.66;94938.19;5055063;28;20417;-74
2023/10/18 02:10:46;;;;;;;12.48;8.35;;;;;;;8.34;79.67;94934.75;5055363;28;20075;-74
2023/10/18 02:13:15;;;;;;;11.35;8.57;;;;;;;8.39;79.39;94942.22;5070348;28;20060;-74
2023/10/18 02:15:41;;;;;;;11.15;8.95;;;;;;;8.56;79.00;94943.59;5073390;28;20090;-74
2023/10/18 02:18:07;;;;;;;12.50;8.85;;;;;;;8.44;79.46;94928.00;5054846;28;20464;-74
2023/10/18 02:20:34;;;;;;;11.88;8.82;;;;;;;8.37;79.42;94928.53;5054783;28;20041;-74
2023/10/18 02:23:00;;;;;;;11.23;8.60;;;;;;;8.38;79.47;94941.34;5054726;28;20119;-74
2023/10/18 02:28:22;;;;;;;11.60;8.70;;;;;;;8.35;79.78;94946.75;5071952;28;20044;-74
2023/10/18 02:30:47;;;;;;;11.83;8.13;;;;;;;8.24;79.00;94928.56;5055760;28;20040;-74
2023/10/18 02:33:12;;;;;;;10.93;7.95;;;;;;;8.17;79.38;94935.13;5054638;28;20270;-74
2023/10/18 02:35:40;;;;;;;11.48;8.82;;;;;;;8.19;79.63;94931.50;5071420;28;20078;-74
2023/10/18 02:38:09;;;;;;;10.50;8.13;;;;;;;8.25;79.18;94940.59;5071147;28;20033;-74
2023/10/18 02:40:38;;;;;;;10.80;8.15;;;;;;;8.06;79.38;94918.59;5070002;28;20071;-74
2023/10/18 02:43:08;;;;;;;9.93;7.22;;;;;;;8.26;79.36;94937.88;5054968;28;20032;-74
2023/10/18 02:45:33;;;;;;;9.70;7.95;;;;;;;8.19;78.84;94938.41;5071180;28;20028;-74
2023/10/18 02:48:00;;;;;;;10.55;7.95;;;;;;;8.16;79.31;94936.06;5069681;28;20475;-74
2023/10/18 02:50:26;;;;;;;11.05;8.02;;;;;;;8.12;79.54;94938.03;5071212;28;20039;-74
2023/10/18 02:52:53;;;;;;;9.80;7.38;;;;;;;8.32;79.71;94944.38;5070883;28;20043;-74
2023/10/18 02:55:19;;;;;;;8.13;6.63;;;;;;;8.20;79.53;94937.50;5071150;28;20040;-74
2023/10/18 02:57:48;;;;;;;10.00;6.85;;;;;;;8.12;79.24;94925.09;5070040;28;20020;-74
2023/10/18 03:00:17;;;;;;;8.35;6.80;;;;;;;8.32;78.78;94931.44;5068672;28;20067;-74
2023/10/18 03:02:42;;;;;;;9.82;7.03;;;;;;;7.97;80.40;94923.63;5068776;28;20032;-74
2023/10/18 03:05:08;;;;;;;10.30;6.72;;;;;;;8.07;79.97;94928.00;5052138;28;20029;-74
2023/10/18 03:07:37;;;;;;;10.90;7.35;;;;;;;8.11;79.92;94925.19;5068399;28;20021;-74
2023/10/18 03:10:11;;;;;;;10.75;7.25;;;;;;;8.16;79.96;94931.72;5052339;28;20113;-74
2023/10/18 03:12:44;;;;;;;7.82;6.30;;;;;;;8.14;79.47;94927.59;5069059;28;20497;-74
2023/10/18 03:15:12;;;;;;;9.70;6.63;;;;;;;8.12;79.01;94919.94;5067294;28;20422;-74
2023/10/18 03:17:37;;;;;;;9.80;6.75;;;;;;;8.01;78.73;94905.16;5070316;28;20052;-74
2023/10/18 03:20:19;;;;;;;9.85;6.97;;;;;;;8.22;79.19;94922.69;5070599;28;20043;-73
2023/10/18 03:22:45;;;;;;;7.70;6.80;;;;;;;8.26;79.01;94926.69;5056279;28;20034;-73
2023/10/18 03:25:16;;;;;;;9.18;6.78;;;;;;;8.26;80.00;94922.34;5069313;28;20029;-74
2023/10/18 03:27:42;;;;;;;9.27;6.78;;;;;;;8.32;79.16;94913.31;5070275;28;20379;-74
2023/10/18 03:30:23;;;;;;;8.82;7.18;;;;;;;8.07;80.94;94915.06;5053654;28;20044;-74
2023/10/18 03:32:50;;;;;;;9.63;7.38;;;;;;;8.19;80.30;94904.78;5041110;28;20033;-73
2023/10/18 03:35:20;;;;;;;9.65;7.43;;;;;;;8.36;79.94;94930.28;5069199;28;20044;-74
2023/10/18 03:37:46;;;;;;;10.57;7.40;;;;;;;8.25;79.98;94912.94;5070132;28;20081;-74
2023/10/18 03:40:24;;;;;;;11.18;8.52;;;;;;;8.24;80.72;94906.09;5053627;28;20440;-73
2023/10/18 03:42:51;;;;;;;12.27;8.45;;;;;;;8.16;80.59;94905.84;5069834;28;20035;-73
2023/10/18 03:45:22;;;;;;;11.02;8.43;;;;;;;8.23;80.90;94901.88;5070167;28;20036;-73
2023/10/18 03:47:57;;;;;;;10.25;8.30;;;;;;;8.35;80.31;94894.16;5052228;28;20112;-74
2023/10/18 03:50:29;;;;;;;9.20;7.05;;;;;;;8.50;79.32;94901.66;5070622;28;20115;-74
2023/10/18 03:52:54;;;;;;;8.95;7.40;;;;;;;8.51;79.50;94899.91;5070507;28;20056;-73
2023/10/18 03:55:23;;;;;;;9.63;7.00;;;;;;;8.26;79.55;94903.41;5070794;28;20037;-74
2023/10/18 03:57:54;;;;;;;9.05;6.38;;;;;;;8.21;79.28;94915.84;5068554;28;20024;-73
2023/10/18 04:00:28;;;;;;;9.95;6.60;;;;;;;8.24;79.28;94918.22;5070112;28;20510;-73
2023/10/18 04:02:56;;;;;;;9.25;6.50;;;;;;;8.26;78.57;94896.47;5069819;28;20037;-74
2023/10/18 04:08:06;;;;;;;5.72;4.57;;;;;;;8.32;78.13;94900.38;5069813;28;20043;-73
2023/10/18 04:10:35;;;;;;;6.07;5.10;;;;;;;8.25;77.99;94878.47;5070409;28;20551;-74
2023/10/18 04:13:02;;;;;;;6.25;5.22;;;;;;;7.95;78.30;94869.38;5052574;28;20033;-73
2023/10/18 04:15:32;;;;;;;7.13;5.70;;;;;;;7.96;78.75;94880.56;5052991;28;20048;-73
2023/10/18 04:20:40;;;;;;;8.77;6.25;;;;;;;8.06;79.81;94887.56;5069973;28;20037;-73
2023/10/18 04:23:14;;;;;;;7.90;6.80;;;;;;;7.98;79.88;94876.94;5037378;28;20048;-74
2023/10/18 04:25:42;;;;;;;11.20;7.78;;;;;;;8.17;79.26;94878.22;5054391;28;20095;-73
2023/10/18 04:28:10;;;;;;;14.23;9.68;;;;;;;8.14;78.76;94881.84;5069243;28;20039;-73
2023/10/18 04:30:37;;;;;;;9.98;6.68;;;;;;;8.13;78.70;94887.09;5071106;28;20035;-74
2023/10/18 04:35:40;;;;;;;6.25;4.30;;;;;;;8.13;78.34;94889.69;5054395;28;20111;-73
2023/10/18 04:38:14;;;;;;;5.28;4.18;;;;;;;7.74;79.82;94891.59;5047204;28;20020;-73
2023/10/18 04:40:43;;;;;;;7.22;5.10;;;;;;;7.76;79.64;94887.16;5065450;28;20036;-73
2023/10/18 04:43:10;;;;;;;6.75;4.50;;;;;;;7.87;79.86;94897.56;5066262;28;20482;-73
2023/10/18 04:45:36;;;;;;;4.72;3.75;;;;;;;7.90;79.52;94894.75;5065485;28;20028;-73
2023/10/18 04:48:06;;;;;;;7.70;5.65;;;;;;;7.95;78.84;94895.25;5069742;28;20461;-73
2023/10/18 04:50:37;;;;;;;5.17;3.70;;;;;;;7.93;79.07;94881.59;5065635;28;20032;-73
2023/10/18 04:53:10;;;;;;;5.10;4.35;;;;;;;7.86;79.74;94884.75;5049941;28;20667;-73
2023/10/18 04:55:41;;;;;;;11.30;6.85;;;;;;;8.00;79.62;94890.59;5051321;28;20037;-73
2023/10/18 04:58:06;;;;;;;6.68;4.80;;;;;;;8.17;79.06;94902.31;5062101;28;20029;-73
2023/10/18 05:00:35;;;;;;;12.85;8.38;;;;;;;8.05;79.78;94914.38;5063155;28;20502;-73
2023/10/18 05:03:07;;;;;;;12.93;9.05;;;;;;;7.96;80.14;94899.47;5048780;28;20060;-73
2023/10/18 05:05:37;;;;;;;7.03;5.60;;;;;;;8.26;80.80;94916.34;5065338;28;20043;-74
2023/10/18 05:08:04;;;;;;;7.53;5.25;;;;;;;8.16;80.32;94915.34;5062886;28;20029;-73
2023/10/18 05:10:30;;;;;;;8.90;6.68;;;;;;;8.12;80.45;94913.94;5065714;28;20094;-73
2023/10/18 05:13:01;;;;;;;9.10;6.70;;;;;;;8.30;80.50;94912.59;5047012;28;20441;-73
2023/10/18 05:15:32;;;;;;;9.88;7.20;;;;;;;8.33;80.63;94927.94;5066066;28;20059;-74
2023/10/18 05:17:59;;;;;;;15.10;9.20;;;;;;;8.52;80.29;94932.59;5063698;28;20437;-73
2023/10/18 05:20:28;;;;;;;12.93;9.10;;;;;;;8.44;80.34;94951.31;5065582;28;20290;-74
2023/10/18 05:22:58;;;;;;;12.20;9.48;;;;;;;8.44;80.23;94956.50;5065084;28;20032;-73
2023/10/18 05:25:30;;;;;;;8.93;7.18;;;;;;;8.40;80.03;94955.03;5066831;28;20059;-73
2023/10/18 05:36:11;;;;;;;9.13;6.80;;;;;;;8.84;78.33;94963.13;5055121;28;20054;-73
2023/10/18 05:41:46;;;;;;;6.72;6.03;;;;;;;8.77;78.57;94965.31;5052263;28;20426;-73
2023/10/18 05:44:06;;;;;;;7.10;5.70;;;;;;;8.63;79.26;94955.94;5065532;28;20048;-74
2023/10/18 05:46:33;;;;;;;6.95;5.57;;;;;;;8.81;79.38;94984.88;5068056;28;20021;-73
2023/10/18 05:49:00;;;;;;;6.32;5.43;;;;;;;8.86;78.99;94982.78;5066371;28;20029;-73
2023/10/18 05:51:26;;;;;;;8.38;6.85;;;;;;;8.87;78.32;94973.25;5048997;28;20124;-73
2023/10/18 05:53:59;;;;;;;7.28;6.20;;;;;;;8.91;78.58;94975.50;5048348;28;20029;-73
2023/10/18 05:56:29;;;;;;;6.20;5.60;;;;;;;9.02;78.01;94986.81;5035320;28;20066;-75
2023/10/18 06:01:45;;;;;;;8.05;5.78;;;;;;;8.80;79.46;94983.22;5063763;28;20052;-75
2023/10/18 06:04:12;;;;;;;7.28;5.95;;;;;;;8.85;79.67;94980.28;5068350;28;20036;-74
2023/10/18 06:06:38;;;;;;;7.13;6.20;;;;;;;8.81;80.36;94971.94;5053089;28;20035;-74
2023/10/18 06:09:09;;;;;;;7.85;6.40;;;;;;;8.80;80.72;94972.03;5044195;28;20028;-75
2023/10/18 06:11:36;;;;;;;;;;;;;;;8.63;80.43;94971.50;5069698;28;20093;-74
2023/10/18 06:14:16;;;;;;;6.63;5.47;;;;;;;8.37;79.95;94933.69;5069263;28;19920;-74
2023/10/18 06:16:42;;;;;;;6.70;5.82;;;;;;;8.40;79.67;94943.88;5053800;28;20029;-74
2023/10/18 06:19:08;;;;;;;8.07;6.30;;;;;;;8.64;80.08;94982.69;5064101;28;20053;-74
2023/10/18 06:21:37;;;;;;;7.40;6.03;;;;;;;8.56;79.72;94931.47;5066921;28;20479;-74
2023/10/18 06:24:10;;;;;;;6.43;5.63;;;;;;;8.82;79.27;94976.16;5071146;28;20039;-74
2023/10/18 06:26:36;;;;;;;6.88;5.47;;;;;;;8.89;78.57;94974.78;5070294;28;20121;-74
2023/10/18 06:29:02;;;;;;;6.80;5.78;;;;;;;8.92;78.74;94982.34;5047539;28;20467;-75
2023/10/18 06:31:30;;;;;;;11.55;7.57;;;;;;;8.70;79.00;94962.34;5050460;28;20029;-74
2023/10/18 06:33:58;;;;;;;11.15;7.68;;;;;;;8.65;79.49;94948.91;5050498;28;20104;-74
2023/10/18 06:36:24;;;;;;;11.90;8.15;;;;;;;8.89;79.17;94961.84;5051443;28;20090;-74
2023/10/18 06:38:51;;;;;;;7.63;5.68;;;;;;;8.99;79.29;94964.56;5050980;28;20289;-74
2023/10/18 06:41:19;;;;;;;7.85;5.55;;;;;;;8.98;78.91;94954.31;5032927;28;20605;-74
2023/10/18 06:43:45;;;;;;;6.80;5.32;;;;;;;9.29;78.46;94974.41;5050232;28;20071;-74
2023/10/18 06:46:26;;;;;;;7.32;5.82;;;;;;;9.43;77.72;94977.72;5050222;28;20391;-74
2023/10/18 06:48:54;;;;;;;7.30;5.45;;;;;;;9.51;77.52;94973.63;5033409;28;20110;-74
2023/10/18 06:51:30;;;;;;;8.88;6.57;;;;;;;9.65;75.23;94975.16;5032696;28;20068;-74
2023/10/18 06:54:06;;;;;;;6.65;5.35;;;;;;;9.69;75.82;94986.94;5049293;28;20565;-74
2023/10/18 06:56:39;;;;;;;6.53;4.63;;;;;;;9.68;75.05;94967.13;5050274;28;20060;-74
2023/10/18 06:59:07;;;;;;;6.50;4.90;;;;;;;9.82;75.33;94982.47;5064405;28;20032;-74
2023/10/18 07:04:38;;;;;;;10.15;6.78;;;;;;;9.27;77.25;94967.69;5038006;28;20052;-74
2023/10/18 07:07:13;;;;;;;7.13;5.88;;;;;;;9.29;76.77;94961.44;5051224;28;20029;-74
2023/10/18 07:09:42;;;;;;;7.20;5.70;;;;;;;9.54;77.32;94990.72;5035025;28;20119;-74
2023/10/18 07:12:11;;;;;;;7.13;6.10;;;;;;;9.42;77.29;94986.44;5050726;28;20047;-74
2023/10/18 07:14:37;;;;;;;9.05;6.60;;;;;;;9.40;77.08;94986.56;5050720;28;20033;-74
2023/10/18 07:17:04;;;;;;;8.15;6.03;;;;;;;9.51;76.81;95006.50;5050177;28;20090;-74
2023/10/18 07:19:33;;;;;;;7.90;5.95;;;;;;;9.45;76.76;94994.81;5050716;28;20517;-74
2023/10/18 07:21:58;;;;;;;7.10;5.82;;;;;;;9.57;76.66;94993.88;5050527;28;20047;-74
2023/10/18 07:24:39;;;;;;;6.50;5.80;;;;;;;9.90;75.66;94994.84;5051830;28;20163;-74
2023/10/18 07:27:08;;;;;;;7.57;5.43;;;;;;;9.79;75.36;94987.88;5065038;28;20433;-74
2023/10/18 07:29:36;;;;;;;5.78;4.72;;;;;;;9.78;75.23;94996.63;5033969;28;20051;-74
2023/10/18 07:32:06;;;;;;;6.53;5.22;;;;;;;9.89;74.98;95003.59;5033968;28;20037;-74
2023/10/18 07:34:32;;;;;;;6.72;5.25;;;;;;;9.80;75.16;95005.09;5051597;28;20562;-74
2023/10/18 07:36:58;;;;;;;6.82;5.32;;;;;;;9.74;74.95;95005.56;5051316;28;20036;-74
2023/10/18 07:39:26;;;;;;;6.28;5.40;;;;;;;9.53;76.13;94971.75;5066900;28;20079;-74
2023/10/18 07:41:53;;;;;;;7.63;5.60;;;;;;;9.77;75.89;94974.19;5066260;28;20033;-74
2023/10/18 07:44:18;;;;;;;6.40;5.43;;;;;;;9.72;76.07;95004.88;5051205;28;20037;-74
2023/10/18 07:46:44;;;;;;;8.98;5.20;;;;;;;9.84;76.15;94996.16;5066605;28;20025;-74
2023/10/18 07:49:16;;;;;;;8.45;5.80;;;;;;;9.55;76.23;94995.75;5049740;28;20151;-74
2023/10/18 07:51:48;;;;;;;6.60;5.28;;;;;;;9.71;76.01;94992.03;5065259;28;20033;-74
2023/10/18 07:54:17;;;;;;;6.28;4.65;;;;;;;9.48;75.35;94978.22;5049937;28;20047;-74
2023/10/18 07:56:50;;;;;;;8.05;5.40;;;;;;;9.64;75.11;94991.69;5051138;28;20257;-75
2023/10/18 07:59:31;;;;;;;6.63;4.97;;;;;;;9.77;74.67;94969.00;5049917;28;20040;-74
2023/10/18 08:02:13;;;;;;;6.72;5.13;;;;;;;9.65;75.11;94987.31;5049896;28;20025;-74
2023/10/18 08:04:40;;;;;;;6.35;5.13;;;;;;;9.72;75.31;94991.06;5050109;28;20056;-74
2023/10/18 08:07:10;;;;;;;6.57;5.40;;;;;;;9.76;75.03;94993.31;5050921;28;20029;-74
2023/10/18 08:09:39;;;;;;;6.38;4.28;;;;;;;9.26;75.56;94977.22;5033967;28;20403;-74
2023/10/18 08:12:08;;;;;;;6.03;4.70;;;;;;;9.43;75.23;94986.34;5049677;28;20028;-74
2023/10/18 08:14:34;;;;;;;9.73;5.13;;;;;;;9.46;74.87;94970.53;5033572;28;20041;-74
2023/10/18 08:17:08;;;;;;;6.50;5.10;;;;;;;9.80;75.52;94999.09;5049242;28;20028;-74
2023/10/18 08:19:44;;;;;;;6.85;5.38;;;;;;;9.80;74.68;94986.13;5049771;28;20033;-74
2023/10/18 08:24:41;;;;;;;6.57;5.10;;;;;;;9.69;75.63;94997.31;5049635;28;20025;-74
2023/10/18 08:27:09;;;;;;;7.43;5.25;;;;;;;9.69;75.30;94997.31;5049552;28;20506;-74
2023/10/18 08:29:37;;;;;;;6.43;4.80;;;;;;;9.92;75.28;94985.19;5065881;28;20048;-74
2023/10/18 08:32:15;;;;;;;7.55;5.40;;;;;;;9.89;76.07;94998.41;5049806;28;20067;-74
2023/10/18 08:34:44;;;;;;;5.75;4.63;;;;;;;9.94;75.39;95000.63;5050101;28;20111;-74
2023/10/18 08:37:13;;;;;;;7.75;5.85;;;;;;;9.96;75.50;94996.97;5066144;28;20030;-74
2023/10/18 08:39:52;;;;;;;7.05;5.80;;;;;;;10.13;74.66;94998.25;5065803;28;20119;-74
2023/10/18 08:42:24;;;;;;;7.20;5.70;;;;;;;10.06;75.40;94995.31;5049879;28;20032;-74
2023/10/18 08:44:55;;;;;;;7.45;5.80;;;;;;;10.05;75.41;94988.44;5049549;28;20033;-74
2023/10/18 08:47:23;;;;;;;9.75;6.03;;;;;;;10.04;74.61;94984.22;5049455;28;20036;-74
2023/10/18 08:49:52;;;;;;;6.88;5.75;;;;;;;10.10;73.53;95006.28;5049631;28;20045;-74
2023/10/18 08:52:20;;;;;;;6.93;5.60;;;;;;;10.18;73.21;95003.09;5049314;28;20029;-74
2023/10/18 08:54:46;;;;;;;7.75;5.80;;;;;;;10.20;73.77;95007.22;5065696;28;20029;-74
2023/10/18 08:57:12;;;;;;;6.72;5.68;;;;;;;10.20;73.76;95007.22;5032629;28;20179;-74
2023/10/18 08:59:48;;;;;;;7.80;6.13;;;;;;;10.25;73.60;95015.47;5049329;28;20033;-74
2023/10/18 09:02:23;;;;;;;7.78;5.72;;;;;;;10.39;73.60;95006.63;5065919;28;20446;-74
2023/10/18 09:04:54;;;;;;;5.82;5.22;;;;;;;10.52;73.64;95011.66;5053262;28;20048;-74
2023/10/18 09:07:42;;;;;;;7.57;5.45;;;;;;;10.27;73.80;95010.19;5053020;28;20070;-74
2023/10/18 09:10:13;;;;;;;6.30;5.35;;;;;;;10.35;73.09;95015.59;5053045;28;20066;-74
2023/10/18 09:17:54;;;;;;;6.20;5.28;;;;;;;10.27;75.84;95016.19;5053895;28;20075;-74
2023/10/18 09:20:25;;;;;;;6.07;4.32;;;;;;;10.19;73.97;95015.94;5036594;28;20033;-74
2023/10/18 09:22:54;;;;;;;8.52;5.55;;;;;;;10.28;74.22;95023.06;5053903;28;20037;-74
2023/10/18 09:25:25;;;;;;;7.18;4.93;;;;;;;10.29;73.97;95021.28;5053837;28;20025;-74
2023/10/18 09:27:51;;;;;;;6.68;4.80;;;;;;;10.25;74.53;95022.41;5052664;28;20163;-74
2023/10/18 09:30:20;;;;;;;8.23;5.28;;;;;;;10.27;74.08;95017.97;5054140;28;20033;-74
2023/10/18 09:32:46;;;;;;;8.98;5.90;;;;;;;10.37;74.52;95013.72;5053696;28;20029;-74
2023/10/18 09:35:13;;;;;;;7.82;5.05;;;;;;;10.12;74.38;95024.34;5052657;28;20449;-75
2023/10/18 09:37:38;;;;;;;6.63;4.75;;;;;;;10.13;73.61;94985.28;5052446;28;20112;-74
2023/10/18 09:40:04;;;;;;;9.13;5.53;;;;;;;10.24;73.63;94994.81;5052554;28;20039;-74
2023/10/18 09:42:30;;;;;;;6.85;5.47;;;;;;;10.57;73.38;94988.75;5068888;28;20063;-74
2023/10/18 09:44:55;;;;;;;6.32;5.13;;;;;;;10.61;73.20;95003.13;5052333;28;20029;-74
2023/10/18 09:47:25;;;;;;;6.22;4.80;;;;;;;10.70;73.04;94994.63;5052136;28;20040;-74
2023/10/18 09:49:51;;;;;;;6.13;4.82;;;;;;;10.72;72.34;95000.50;5052360;28;20489;-74
2023/10/18 09:52:16;;;;;;;6.65;4.65;;;;;;;10.72;71.90;94987.50;5052157;28;20029;-74
2023/10/18 09:54:49;;;;;;;6.15;4.70;;;;;;;10.98;71.73;94991.53;5068885;28;20025;-74
2023/10/18 09:57:19;;;;;;;8.20;4.80;;;;;;;11.07;71.27;95003.81;5068583;28;20048;-74
2023/10/18 09:59:47;;;;;;;6.00;4.53;;;;;;;10.92;70.58;94987.66;5052081;28;20029;-74
2023/10/18 10:02:15;;;;;;;6.18;4.05;;;;;;;10.78;70.50;94981.03;5035718;28;20060;-74
2023/10/18 10:04:42;;;;;;;7.63;4.90;;;;;;;10.85;70.49;94978.75;5052303;28;20076;-74
2023/10/18 10:09:59;;;;;;;6.45;4.82;;;;;;;11.15;69.85;94981.44;5052052;28;20415;-74
2023/10/18 10:12:28;;;;;;;8.63;5.05;;;;;;;11.11;69.91;94979.19;5051931;28;20040;-74
2023/10/18 10:14:53;;;;;;;5.70;4.40;;;;;;;11.31;69.57;94970.59;5034830;28;20023;-74
2023/10/18 10:17:18;;;;;;;5.72;4.07;;;;;;;11.45;69.19;94968.59;5051508;28;20049;-74
2023/10/18 10:19:50;;;;;;;5.68;4.57;;;;;;;11.47;68.92;94964.09;5068474;28;20033;-74
2023/10/18 10:22:15;;;;;;;;;;;;;;;11.32;69.11;94961.81;5068724;28;20033;-74
2023/10/18 10:25:03;;;;;;;5.90;4.78;;;;;;;11.10;69.73;94939.38;5053068;28;19924;-74
2023/10/18 10:30:03;;;;;;;6.60;4.68;;;;;;;11.43;68.68;94954.91;5051614;28;20116;-75
2023/10/18 10:32:32;;;;;;;6.65;4.97;;;;;;;11.46;68.52;94936.44;5052647;28;20125;-74
2023/10/18 10:35:16;;;;;;;6.00;4.50;;;;;;;11.49;68.11;94941.38;5051577;28;20032;-74
2023/10/18 10:38:00;;;;;;;6.60;4.95;;;;;;;11.73;68.26;94943.66;5035166;28;20070;-74
2023/10/18 10:43:13;;;;;;;6.85;4.47;;;;;;;11.87;67.57;94938.16;5051467;28;20051;-74
2023/10/18 10:48:16;;;;;;;5.88;4.18;;;;;;;11.90;67.10;94930.09;5067348;28;20098;-74
2023/10/18 10:50:45;;;;;;;6.43;4.70;;;;;;;11.78;67.45;94924.13;5052710;28;20033;-74
2023/10/18 10:53:11;;;;;;;6.32;4.45;;;;;;;11.72;68.02;94922.03;5051109;28;20033;-74
2023/10/18 10:55:38;;;;;;;6.18;4.57;;;;;;;11.81;67.75;94915.22;5034584;28;20399;-74
2023/10/18 10:58:15;;;;;;;7.78;5.28;;;;;;;11.76;67.40;94925.22;5050885;28;20037;-74
2023/10/18 11:00:59;;;;;;;7.15;5.18;;;;;;;11.85;66.88;94924.41;5051277;28;20112;-74
2023/10/18 11:03:46;;;;;;;8.63;4.93;;;;;;;12.00;66.62;94930.91;5050869;28;20033;-74
2023/10/18 11:06:12;;;;;;;6.95;5.10;;;;;;;12.17;66.36;94923.41;5050964;28;20079;-74
2023/10/18 11:08:37;;;;;;;6.30;4.95;;;;;;;12.21;65.77;94927.44;5050714;28;20064;-74
2023/10/18 11:11:06;;;;;;;9.38;5.28;;;;;;;12.22;64.95;94931.66;5050693;28;20422;-74
2023/10/18 11:13:31;;;;;;;6.20;4.50;;;;;;;12.25;65.36;94910.56;5050569;28;20112;-74
2023/10/18 11:16:00;;;;;;;5.72;4.75;;;;;;;12.28;64.07;94907.69;5034278;28;20121;-74
2023/10/18 11:18:34;;;;;;;6.70;5.07;;;;;;;12.10;67.52;94936.16;5034207;28;20056;-74
2023/10/18 11:21:06;;;;;;;6.20;4.80;;;;;;;12.00;65.03;94935.31;5050698;28;20048;-74
2023/10/18 11:23:33;;;;;;;6.15;5.25;;;;;;;12.07;65.07;94926.03;5050437;28;20116;-74
2023/10/18 11:25:59;;;;;;;8.23;5.70;;;;;;;12.13;65.31;94929.88;5049490;28;20502;-74
2023/10/18 11:28:29;;;;;;;7.40;5.75;;;;;;;12.29;64.76;94933.59;5067086;28;20634;-74
2023/10/18 11:30:56;;;;;;;6.70;5.38;;;;;;;12.21;64.96;94930.84;5050274;28;20037;-74
2023/10/18 11:33:37;;;;;;;8.27;6.05;;;;;;;12.15;64.88;94936.59;5050254;28;20483;-74
2023/10/18 11:36:04;;;;;;;8.32;5.90;;;;;;;11.99;65.41;94934.50;5034261;28;20036;-74
2023/10/18 11:38:34;;;;;;;7.82;5.55;;;;;;;12.16;64.40;94930.41;5050198;28;20033;-74
2023/10/18 11:41:04;;;;;;;7.93;5.88;;;;;;;12.14;64.88;94934.94;5050163;28;20561;-74
2023/10/18 11:43:39;;;;;;;7.80;6.20;;;;;;;12.36;63.80;94930.44;5051285;28;20024;-74
2023/10/18 11:46:08;;;;;;;6.97;5.78;;;;;;;12.44;63.26;94936.63;5051293;28;20068;-74
2023/10/18 11:48:35;;;;;;;6.88;5.38;;;;;;;12.61;62.41;94939.53;5049924;28;20032;-74
2023/10/18 11:51:02;;;;;;;6.30;5.65;;;;;;;12.77;62.60;94941.59;5066538;28;20395;-74
2023/10/18 11:53:27;;;;;;;6.88;5.53;;;;;;;12.57;63.71;94933.78;5051130;28;20021;-74
2023/10/18 11:55:56;;;;;;;6.70;5.45;;;;;;;12.53;63.07;94920.19;5049880;28;20044;-75
2023/10/18 11:58:23;;;;;;;7.47;5.65;;;;;;;12.60;62.86;94909.22;5050972;28;20033;-74
2023/10/18 12:00:49;;;;;;;5.88;5.15;;;;;;;12.41;63.46;94910.03;5050069;28;20503;-74
2023/10/18 12:03:15;;;;;;;7.00;6.28;;;;;;;12.47;64.10;94912.09;5033253;28;20025;-74
2023/10/18 12:05:43;;;;;;;7.40;5.82;;;;;;;12.50;63.40;94909.22;5051487;28;20094;-74
2023/10/18 12:08:12;;;;;;;6.05;5.45;;;;;;;12.41;63.70;94916.06;5051151;28;20032;-74
2023/10/18 12:10:38;;;;;;;9.27;7.22;;;;;;;12.42;63.38;94915.09;5051307;28;20119;-74
2023/10/18 12:13:12;;;;;;;8.82;7.65;;;;;;;12.20;63.96;94902.31;5066320;28;20051;-74
2023/10/18 12:15:37;;;;;;;8.27;7.10;;;;;;;12.50;63.20;94910.03;5065669;28;20025;-74
2023/10/18 12:18:04;;;;;;;8.80;7.57;;;;;;;12.39;64.40;94917.16;5049495;28;20049;-74
2023/10/18 12:20:36;;;;;;;8.00;7.20;;;;;;;12.28;64.44;94905.06;5049837;28;20052;-74
2023/10/18 12:23:18;;;;;;;9.40;7.68;;;;;;;12.34;65.19;94927.16;5050729;28;20067;-74
2023/10/18 12:25:44;;;;;;;9.80;6.88;;;;;;;12.54;63.50;94915.81;5050020;28;20033;-74
2023/10/18 12:28:13;;;;;;;7.93;7.07;;;;;;;12.38;64.03;94926.75;5032842;28;20039;-74
2023/10/18 12:30:43;;;;;;;10.43;9.32;;;;;;;12.29;64.37;94927.56;5066002;28;20153;-74
2023/10/18 12:33:14;;;;;;;8.95;7.80;;;;;;;12.33;64.26;94930.72;5033007;28;20526;-74
2023/10/18 12:35:39;;;;;;;;;;;;;;;12.46;64.22;94926.09;5050223;28;20028;-74
2023/10/18 12:38:13;;;;;;;7.43;6.63;;;;;;;12.30;65.48;94926.59;5053360;28;20394;-74
2023/10/18 12:40:50;;;;;;;7.10;6.13;;;;;;;12.18;65.09;94930.31;5055301;28;20039;-74